createdAt,value
2019-04-04T00:02:25.867Z,7.22
2019-04-04T00:04:54.181Z,8.75
2019-04-04T00:07:22.379Z,8.57
2019-04-04T00:09:50.583Z,10.77
2019-04-04T00:12:18.639Z,10.35
2019-04-04T00:14:46.391Z,7.55
2019-04-04T00:17:14.526Z,7.45
2019-04-04T00:19:42.740Z,6.82
2019-04-04T00:22:11.415Z,7.97
2019-04-04T00:24:39.923Z,7.20
2019-04-04T00:27:07.554Z,6.30
2019-04-04T00:29:35.749Z,8.27
2019-04-04T00:32:03.919Z,7.68
2019-04-04T00:34:31.991Z,8.35
2019-04-04T00:37:00.157Z,7.70
2019-04-04T00:39:28.267Z,8.50
2019-04-04T00:41:56.508Z,7.68
2019-04-04T00:44:24.629Z,7.68
2019-04-04T00:46:52.773Z,8.88
2019-04-04T00:49:21.665Z,9.82
2019-04-04T00:51:49.461Z,7.93
2019-04-04T00:54:18.005Z,9.15
2019-04-04T00:56:46.910Z,8.68
2019-04-04T00:59:14.132Z,8.63
2019-04-04T01:01:42.491Z,9.52
2019-04-04T01:04:10.605Z,8.48
2019-04-04T01:06:38.758Z,7.87
2019-04-04T01:09:11.328Z,7.95
2019-04-04T01:11:40.827Z,8.60
2019-04-04T01:14:08.898Z,11.30
2019-04-04T01:16:37.077Z,8.88
2019-04-04T01:19:05.579Z,8.38
2019-04-04T01:21:34.208Z,11.80
2019-04-04T01:24:02.596Z,8.90
2019-04-04T01:26:31.297Z,10.15
2019-04-04T01:28:59.454Z,8.45
2019-04-04T01:31:27.382Z,7.95
2019-04-04T01:33:55.628Z,12.63
2019-04-04T01:36:25.343Z,9.02
2019-04-04T01:38:52.786Z,8.82
2019-04-04T01:41:21.902Z,7.68
2019-04-04T01:43:49.888Z,9.77
2019-04-04T01:46:18.606Z,9.50
2019-04-04T01:48:48.038Z,9.48
2019-04-04T01:51:15.988Z,9.80
2019-04-04T01:53:44.573Z,8.48
2019-04-04T01:56:13.193Z,9.63
2019-04-04T01:58:42.008Z,9.73
2019-04-04T02:01:09.840Z,8.70
2019-04-04T02:03:37.912Z,10.02
2019-04-04T02:06:05.990Z,8.23
2019-04-04T02:08:34.062Z,11.00
2019-04-04T02:11:02.092Z,10.05
2019-04-04T02:13:30.177Z,9.32
2019-04-04T02:15:58.434Z,8.43
2019-04-04T02:18:26.143Z,9.35
2019-04-04T02:20:57.667Z,9.10
2019-04-04T02:23:22.272Z,9.32
2019-04-04T02:25:50.350Z,12.00
2019-04-04T02:28:18.540Z,10.07
2019-04-04T02:30:48.466Z,10.05
2019-04-04T02:33:14.785Z,8.93
2019-04-04T02:35:43.903Z,11.43
2019-04-04T02:38:11.898Z,11.07
2019-04-04T02:40:42.141Z,9.20
2019-04-04T02:43:09.046Z,9.15
2019-04-04T02:45:38.831Z,11.05
2019-04-04T02:48:05.860Z,10.40
2019-04-04T02:50:35.521Z,8.27
2019-04-04T02:53:02.686Z,8.13
2019-04-04T02:55:31.233Z,8.20
2019-04-04T02:57:58.833Z,10.38
2019-04-04T03:00:27.969Z,11.48
2019-04-04T03:02:55.728Z,8.88
2019-04-04T03:05:23.890Z,8.35
2019-04-04T03:07:52.067Z,8.73
2019-04-04T03:10:20.121Z,8.48
2019-04-04T03:12:48.205Z,10.00
2019-04-04T03:15:15.788Z,8.30
2019-04-04T03:17:43.508Z,8.23
2019-04-04T03:20:16.144Z,10.02
2019-04-04T03:22:39.465Z,7.90
2019-04-04T03:25:07.509Z,8.48
2019-04-04T03:27:35.594Z,8.93
2019-04-04T03:30:03.690Z,8.30
2019-04-04T03:32:32.161Z,7.28
2019-04-04T03:35:00.280Z,8.07
2019-04-04T03:37:28.093Z,8.18
2019-04-04T03:39:56.153Z,11.05
2019-04-04T03:42:24.007Z,8.90
2019-04-04T03:44:53.511Z,11.15
2019-04-04T03:47:20.303Z,10.25
2019-04-04T03:49:48.237Z,10.10
2019-04-04T03:52:16.529Z,7.45
2019-04-04T03:54:45.212Z,7.72
2019-04-04T03:57:12.972Z,8.48
2019-04-04T03:59:40.818Z,7.75
2019-04-04T04:02:08.894Z,6.87
2019-04-04T04:04:36.965Z,7.15
2019-04-04T04:07:05.159Z,8.02
2019-04-04T04:09:33.226Z,7.28
2019-04-04T04:12:00.966Z,9.73
2019-04-04T04:14:29.439Z,8.88
2019-04-04T04:16:57.514Z,6.50
2019-04-04T04:19:30.063Z,6.85
2019-04-04T04:21:53.371Z,7.72
2019-04-04T04:24:21.438Z,8.65
2019-04-04T04:26:48.956Z,7.05
2019-04-04T04:29:16.850Z,7.97
2019-04-04T04:31:48.126Z,6.97
2019-04-04T04:34:15.187Z,11.35
2019-04-04T04:36:47.740Z,6.82
2019-04-04T04:39:12.958Z,7.35
2019-04-04T04:41:41.981Z,6.05
2019-04-04T04:44:10.599Z,6.82
2019-04-04T04:46:38.485Z,6.82
2019-04-04T04:49:06.531Z,6.05
2019-04-04T04:51:34.722Z,6.50
2019-04-04T04:54:02.601Z,6.68
2019-04-04T04:56:31.942Z,7.32
2019-04-04T04:58:59.235Z,5.78
2019-04-04T05:01:26.998Z,6.45
2019-04-04T05:03:56.481Z,8.13
2019-04-04T05:06:22.525Z,7.65
2019-04-04T05:08:50.293Z,6.85
2019-04-04T05:11:19.160Z,7.45
2019-04-04T05:13:46.846Z,6.72
2019-04-04T05:16:14.621Z,7.28
2019-04-04T05:18:42.782Z,5.68
2019-04-04T05:21:10.285Z,6.25
2019-04-04T05:23:39.339Z,5.97
2019-04-04T05:26:09.538Z,6.03
2019-04-04T05:28:35.294Z,6.47
2019-04-04T05:31:03.353Z,7.62
2019-04-04T05:33:31.669Z,5.75
2019-04-04T05:35:59.229Z,5.75
2019-04-04T05:38:27.043Z,5.10
2019-04-04T05:40:55.328Z,6.62
2019-04-04T05:43:23.221Z,9.30
2019-04-04T05:45:51.254Z,5.68
2019-04-04T05:48:19.404Z,7.55
2019-04-04T05:50:47.307Z,6.37
2019-04-04T05:53:15.470Z,5.78
2019-04-04T05:55:43.434Z,6.62
2019-04-04T05:58:11.715Z,7.35
2019-04-04T06:00:39.803Z,5.95
2019-04-04T06:03:07.870Z,7.28
2019-04-04T06:05:36.051Z,5.93
2019-04-04T06:08:04.100Z,5.18
2019-04-04T06:10:32.170Z,6.65
2019-04-04T06:13:00.758Z,5.65
2019-04-04T06:15:30.093Z,6.50
2019-04-04T06:17:57.035Z,6.80
2019-04-04T06:20:25.234Z,6.43
2019-04-04T06:22:53.381Z,5.60
2019-04-04T06:25:21.519Z,5.78
2019-04-04T06:27:49.693Z,8.27
2019-04-04T06:30:18.177Z,7.00
2019-04-04T06:32:45.857Z,7.57
2019-04-04T06:35:15.456Z,8.68
2019-04-04T06:37:45.758Z,6.72
2019-04-04T06:40:10.756Z,6.93
2019-04-04T06:42:39.363Z,7.03
2019-04-04T06:45:07.427Z,6.07
2019-04-04T06:47:35.504Z,9.85
2019-04-04T06:50:07.195Z,7.82
2019-04-04T06:52:31.319Z,6.65
2019-04-04T06:54:59.395Z,6.00
2019-04-04T06:57:27.574Z,9.18
2019-04-04T06:59:55.765Z,9.48
2019-04-04T07:02:24.003Z,5.60
2019-04-04T07:04:52.175Z,6.60
2019-04-04T07:07:20.862Z,6.82
2019-04-04T07:09:50.339Z,6.65
2019-04-04T07:12:23.496Z,7.28
2019-04-04T07:14:46.401Z,6.20
2019-04-04T07:17:12.883Z,8.80
2019-04-04T07:19:41.251Z,7.37
2019-04-04T07:22:09.291Z,7.80
2019-04-04T07:24:37.397Z,6.25
2019-04-04T07:27:05.362Z,8.10
2019-04-04T07:29:33.617Z,6.45
2019-04-04T07:32:01.395Z,7.47
2019-04-04T07:34:29.486Z,6.87
2019-04-04T07:36:57.619Z,7.62
2019-04-04T07:39:25.738Z,7.15
2019-04-04T07:41:53.885Z,7.10
2019-04-04T07:44:23.402Z,5.80
2019-04-04T07:46:50.007Z,7.37
2019-04-04T07:49:18.465Z,7.65
2019-04-04T07:51:46.565Z,6.57
2019-04-04T07:54:14.322Z,6.35
2019-04-04T07:56:43.522Z,5.90
2019-04-04T07:59:10.686Z,6.30
2019-04-04T08:01:50.690Z,6.18
2019-04-04T08:04:07.449Z,7.25
2019-04-04T08:06:35.482Z,7.10
2019-04-04T08:09:03.666Z,6.57
2019-04-04T08:11:32.265Z,5.37
2019-04-04T08:14:00.036Z,5.50
2019-04-04T08:16:28.180Z,5.95
2019-04-04T08:18:56.181Z,6.32
2019-04-04T08:21:24.221Z,5.87
2019-04-04T08:23:51.994Z,5.55
2019-04-04T08:26:20.340Z,6.78
2019-04-04T08:28:48.428Z,5.15
2019-04-04T08:31:16.519Z,6.53
2019-04-04T08:33:44.521Z,6.70
2019-04-04T08:36:12.663Z,5.68
2019-04-04T08:38:40.712Z,8.40
2019-04-04T08:41:09.297Z,8.15
2019-04-04T08:43:37.389Z,7.70
2019-04-04T08:46:05.468Z,7.78
2019-04-04T08:48:33.431Z,8.25
2019-04-04T08:51:01.639Z,7.87
2019-04-04T08:53:39.237Z,7.00
2019-04-04T08:55:57.473Z,7.93
2019-04-04T08:58:25.510Z,6.60
2019-04-04T09:00:53.605Z,7.28
2019-04-04T09:03:22.178Z,7.50
2019-04-04T09:05:50.210Z,7.97
2019-04-04T09:08:18.309Z,9.35
2019-04-04T09:10:46.477Z,7.30
2019-04-04T09:13:14.568Z,7.15
2019-04-04T09:15:42.640Z,8.38
2019-04-04T09:18:11.514Z,9.05
2019-04-04T09:20:39.573Z,7.30
2019-04-04T09:23:07.688Z,7.97
2019-04-04T09:25:35.950Z,7.25
2019-04-04T09:28:03.843Z,6.65
2019-04-04T09:30:31.696Z,8.52
2019-04-04T09:33:00.221Z,7.97
2019-04-04T09:35:28.113Z,7.10
2019-04-04T09:37:56.209Z,7.82
2019-04-04T09:40:24.562Z,6.70
2019-04-04T09:42:53.378Z,7.10
2019-04-04T09:45:21.682Z,8.60
2019-04-04T09:47:50.406Z,6.87
2019-04-04T09:50:18.304Z,5.82
2019-04-04T09:52:46.943Z,6.72
2019-04-04T09:55:15.072Z,7.28
2019-04-04T09:57:42.864Z,7.40
2019-04-04T10:00:12.507Z,7.10
2019-04-04T10:02:40.416Z,6.97
2019-04-04T10:05:08.938Z,7.30
2019-04-04T10:07:37.073Z,7.47
2019-04-04T10:10:06.056Z,6.45
2019-04-04T10:12:34.612Z,6.00
2019-04-04T10:15:02.135Z,6.47
2019-04-04T10:17:30.275Z,7.20
2019-04-04T10:19:58.504Z,6.22
2019-04-04T10:22:26.799Z,7.57
2019-04-04T10:24:54.770Z,6.57
2019-04-04T10:27:23.451Z,9.07
2019-04-04T10:29:51.017Z,7.20
2019-04-04T10:32:19.708Z,7.15
2019-04-04T10:34:47.786Z,5.97
2019-04-04T10:37:15.839Z,5.95
2019-04-04T10:39:44.084Z,6.93
2019-04-04T10:42:12.178Z,5.97
2019-04-04T10:44:40.533Z,7.93
2019-04-04T10:47:08.645Z,6.85
2019-04-04T10:49:36.611Z,6.80
2019-04-04T10:52:04.596Z,7.12
2019-04-04T10:54:32.834Z,6.28
2019-04-04T10:57:01.031Z,7.35
2019-04-04T10:59:29.122Z,7.10
2019-04-04T11:01:57.762Z,6.78
2019-04-04T11:04:25.175Z,5.70
2019-04-04T11:06:54.046Z,10.57
2019-04-04T11:09:22.840Z,6.65
2019-04-04T11:11:51.463Z,7.15
2019-04-04T11:14:19.352Z,6.50
2019-04-04T11:16:47.472Z,6.40
2019-04-04T11:19:15.691Z,5.90
2019-04-04T11:21:43.152Z,7.35
2019-04-04T11:24:12.078Z,6.40
2019-04-04T11:26:40.252Z,6.90
2019-04-04T11:29:08.290Z,5.87
2019-04-04T11:31:36.237Z,6.28
2019-04-04T11:34:04.404Z,7.47
2019-04-04T11:36:32.557Z,7.18
2019-04-04T11:39:00.682Z,6.32
2019-04-04T11:41:28.847Z,5.78
2019-04-04T11:43:56.957Z,6.87
2019-04-04T11:46:25.331Z,6.87
2019-04-04T11:48:53.284Z,6.30
2019-04-04T11:51:21.419Z,7.55
2019-04-04T11:53:49.529Z,9.23
2019-04-04T11:56:17.598Z,8.20
2019-04-04T11:58:45.754Z,6.00
2019-04-04T12:01:13.619Z,5.95
2019-04-04T12:03:41.884Z,7.03
2019-04-04T12:06:10.000Z,7.57
2019-04-04T12:08:38.746Z,5.20
2019-04-04T12:11:06.925Z,7.50
2019-04-04T12:13:35.027Z,6.37
2019-04-04T12:16:03.319Z,5.93
2019-04-04T12:18:31.448Z,5.97
2019-04-04T12:20:59.513Z,6.95
2019-04-04T12:23:27.646Z,6.05
2019-04-04T12:25:55.868Z,6.30
2019-04-04T12:28:24.662Z,5.53
2019-04-04T12:30:53.254Z,6.90
2019-04-04T12:33:22.057Z,5.97
2019-04-04T12:35:52.371Z,5.53
2019-04-04T12:38:19.118Z,6.10
2019-04-04T12:40:47.154Z,7.00
2019-04-04T12:43:14.938Z,6.55
2019-04-04T12:45:43.082Z,8.02
2019-04-04T12:48:11.170Z,6.85
2019-04-04T12:50:39.240Z,7.05
2019-04-04T12:53:07.373Z,6.30
2019-04-04T12:55:35.546Z,6.30
2019-04-04T12:58:04.176Z,6.00
2019-04-04T13:00:32.878Z,6.53
2019-04-04T13:03:01.042Z,6.00
2019-04-04T13:05:28.886Z,6.43
2019-04-04T13:07:56.682Z,5.65
2019-04-04T13:10:32.800Z,6.95
2019-04-04T13:12:54.303Z,6.47
2019-04-04T13:15:22.526Z,8.73
2019-04-04T13:17:50.860Z,6.40
2019-04-04T13:20:18.968Z,6.72
2019-04-04T13:22:47.102Z,5.57
2019-04-04T13:25:15.817Z,6.00
2019-04-04T13:27:43.992Z,6.50
2019-04-04T13:30:12.375Z,7.22
2019-04-04T13:32:40.452Z,7.53
2019-04-04T13:35:08.502Z,7.28
2019-04-04T13:37:40.233Z,7.05
2019-04-04T13:40:08.448Z,6.28
2019-04-04T13:42:36.624Z,7.22
2019-04-04T13:45:05.237Z,6.53
2019-04-04T13:47:33.429Z,6.93
2019-04-04T13:50:01.562Z,8.75
2019-04-04T13:52:29.636Z,6.75
2019-04-04T13:54:57.690Z,8.55
2019-04-04T13:57:25.773Z,7.18
2019-04-04T13:59:54.619Z,6.53
2019-04-04T14:02:22.222Z,8.15
2019-04-04T14:04:50.366Z,7.45
2019-04-04T14:07:18.169Z,9.88
2019-04-04T14:09:46.215Z,6.90
2019-04-04T14:12:14.845Z,7.25
2019-04-04T14:14:43.405Z,7.87
2019-04-04T14:17:11.493Z,8.32
2019-04-04T14:19:39.353Z,7.03
2019-04-04T14:22:07.250Z,10.38
2019-04-04T14:24:35.289Z,9.75
2019-04-04T14:27:03.443Z,6.93
2019-04-04T14:29:32.020Z,8.57
2019-04-04T14:31:59.899Z,5.90
2019-04-04T14:34:28.090Z,7.57
2019-04-04T14:36:56.538Z,5.60
2019-04-04T14:39:25.245Z,5.75
2019-04-04T14:41:53.546Z,5.95
2019-04-04T14:44:21.771Z,5.78
2019-04-04T14:46:49.530Z,6.15
2019-04-04T14:49:17.728Z,6.55
2019-04-04T14:51:45.923Z,6.18
2019-04-04T14:54:13.982Z,6.12
2019-04-04T14:56:42.129Z,6.37
2019-04-04T14:59:10.307Z,8.43
2019-04-04T15:01:38.509Z,6.70
2019-04-04T15:04:06.353Z,9.75
2019-04-04T15:06:34.440Z,6.43
2019-04-04T15:09:03.634Z,8.35
2019-04-04T15:11:31.697Z,7.35
2019-04-04T15:13:59.930Z,7.95
2019-04-04T15:16:28.539Z,7.97
2019-04-04T15:18:56.638Z,8.60
2019-04-04T15:21:24.956Z,7.07
2019-04-04T15:23:53.596Z,7.45
2019-04-04T15:26:21.785Z,8.02
2019-04-04T15:28:50.127Z,10.35
2019-04-04T15:31:18.322Z,6.90
2019-04-04T15:33:46.454Z,7.75
2019-04-04T15:36:14.266Z,6.05
2019-04-04T15:38:42.431Z,7.62
2019-04-04T15:41:10.297Z,7.07
2019-04-04T15:43:38.139Z,6.90
2019-04-04T15:46:06.870Z,8.77
2019-04-04T15:48:34.999Z,7.12
2019-04-04T15:51:03.370Z,8.23
2019-04-04T15:53:31.258Z,8.50
2019-04-04T15:55:59.106Z,8.27
2019-04-04T15:58:27.204Z,7.20
2019-04-04T16:00:55.269Z,7.75
2019-04-04T16:03:23.600Z,6.53
2019-04-04T16:05:51.930Z,7.25
2019-04-04T16:08:20.120Z,9.20
2019-04-04T16:10:47.987Z,7.97
2019-04-04T16:13:16.131Z,7.05
2019-04-04T16:15:45.290Z,7.60
2019-04-04T16:18:13.396Z,6.85
2019-04-04T16:20:41.512Z,7.47
2019-04-04T16:23:09.639Z,9.27
2019-04-04T16:25:37.729Z,10.13
2019-04-04T16:28:05.904Z,8.55
2019-04-04T16:30:33.432Z,11.70
2019-04-04T16:33:01.545Z,10.95
2019-04-04T16:35:29.502Z,11.52
2019-04-04T16:37:57.523Z,13.57
2019-04-04T16:40:26.166Z,13.68
2019-04-04T16:42:54.373Z,15.07
2019-04-04T16:45:22.159Z,16.27
2019-04-04T16:47:50.244Z,16.05
2019-04-04T16:50:18.219Z,18.80
2019-04-04T16:52:46.287Z,19.98
2019-04-04T16:55:14.367Z,20.30
2019-04-04T16:57:43.494Z,20.42
2019-04-04T17:00:11.086Z,16.10
2019-04-04T17:02:39.277Z,20.95
2019-04-04T17:05:07.167Z,14.52
2019-04-04T17:07:35.214Z,16.40
2019-04-04T17:10:03.359Z,20.23
2019-04-04T17:12:31.661Z,17.95
2019-04-04T17:14:59.449Z,20.65
2019-04-04T17:17:28.082Z,17.42
2019-04-04T17:19:56.970Z,21.50
2019-04-04T17:22:24.898Z,16.62
2019-04-04T17:24:52.995Z,14.68
2019-04-04T17:27:21.144Z,20.02
2019-04-04T17:29:49.755Z,19.83
2019-04-04T17:32:17.910Z,17.83
2019-04-04T17:34:45.866Z,19.45
2019-04-04T17:37:14.148Z,18.33
2019-04-04T17:39:41.836Z,18.30
2019-04-04T17:42:10.056Z,19.87
2019-04-04T17:44:38.644Z,20.77
2019-04-04T17:47:06.628Z,20.75
2019-04-04T17:49:34.463Z,22.15
2019-04-04T17:52:03.047Z,22.02
2019-04-04T17:54:31.262Z,22.62
2019-04-04T17:56:59.431Z,21.80
2019-04-04T17:59:30.251Z,21.10
2019-04-04T18:01:55.454Z,20.50
2019-04-04T18:04:23.538Z,20.73
2019-04-04T18:06:51.916Z,19.90
2019-04-04T18:09:31.181Z,23.58
2019-04-04T18:11:48.857Z,22.10
2019-04-04T18:14:18.036Z,19.62
2019-04-04T18:16:46.142Z,18.77
2019-04-04T18:19:14.388Z,19.33
2019-04-04T18:21:42.256Z,19.42
2019-04-04T18:24:10.350Z,20.75
2019-04-04T18:26:38.416Z,18.08
2019-04-04T18:29:07.052Z,18.50
2019-04-04T18:31:35.194Z,17.37
2019-04-04T18:34:03.452Z,20.20
2019-04-04T18:36:31.351Z,18.40
2019-04-04T18:38:59.497Z,15.63
2019-04-04T18:41:27.656Z,18.23
2019-04-04T18:43:56.266Z,19.62
2019-04-04T18:46:24.442Z,17.75
2019-04-04T18:48:52.775Z,17.30
2019-04-04T18:51:20.682Z,19.35
2019-04-04T18:53:48.875Z,16.52
2019-04-04T18:56:17.081Z,17.50
2019-04-04T18:58:45.532Z,19.08
2019-04-04T19:01:14.131Z,18.42
2019-04-04T19:03:42.151Z,20.30
2019-04-04T19:06:10.230Z,17.58
2019-04-04T19:08:38.505Z,19.40
2019-04-04T19:11:06.745Z,19.25
2019-04-04T19:13:44.186Z,18.40
2019-04-04T19:16:03.897Z,14.73
2019-04-04T19:18:31.385Z,17.50
2019-04-04T19:21:00.028Z,15.98
2019-04-04T19:23:27.568Z,16.37
2019-04-04T19:25:56.184Z,19.60
2019-04-04T19:28:24.336Z,15.15
2019-04-04T19:30:52.445Z,17.83
2019-04-04T19:33:20.639Z,16.60
2019-04-04T19:35:48.838Z,18.05
2019-04-04T19:38:16.996Z,18.33
2019-04-04T19:40:45.159Z,18.52
2019-04-04T19:43:18.176Z,16.27
2019-04-04T19:45:41.398Z,18.58
2019-04-04T19:48:09.969Z,18.98
2019-04-04T19:50:39.277Z,21.92
2019-04-04T19:53:06.191Z,21.10
2019-04-04T19:55:34.319Z,21.35
2019-04-04T19:58:02.518Z,20.40
2019-04-04T20:00:32.063Z,17.92
2019-04-04T20:02:58.700Z,19.35
2019-04-04T20:05:26.820Z,21.67
2019-04-04T20:07:55.007Z,19.75
2019-04-04T20:10:23.273Z,21.17
2019-04-04T20:12:51.943Z,20.45
2019-04-04T20:15:20.064Z,19.35
2019-04-04T20:17:48.186Z,21.12
2019-04-04T20:20:16.172Z,20.23
2019-04-04T20:22:46.357Z,21.92
2019-04-04T20:25:15.167Z,22.85
2019-04-04T20:27:53.976Z,20.65
2019-04-04T20:30:14.089Z,18.87
2019-04-04T20:32:40.237Z,20.02
2019-04-04T20:35:08.355Z,21.12
2019-04-04T20:37:36.996Z,22.52
2019-04-04T20:40:05.413Z,20.70
2019-04-04T20:42:33.569Z,20.88
2019-04-04T20:45:01.678Z,22.17
2019-04-04T20:47:30.443Z,21.55
2019-04-04T20:49:58.522Z,20.25
2019-04-04T20:52:26.608Z,22.95
2019-04-04T20:54:54.562Z,27.48
2019-04-04T20:57:23.109Z,23.98
2019-04-04T20:59:51.215Z,23.62
2019-04-04T21:02:19.326Z,20.17
2019-04-04T21:04:47.488Z,22.48
2019-04-04T21:07:16.359Z,22.85
2019-04-04T21:09:44.640Z,20.55
2019-04-04T21:12:12.866Z,23.58
2019-04-04T21:14:40.981Z,19.77
2019-04-04T21:17:08.710Z,21.20
2019-04-04T21:19:36.843Z,22.80
2019-04-04T21:22:05.005Z,20.37
2019-04-04T21:24:34.519Z,22.45
2019-04-04T21:27:02.680Z,19.50
2019-04-04T21:29:31.317Z,21.75
2019-04-04T21:32:00.047Z,20.50
2019-04-04T21:34:27.851Z,21.10
2019-04-04T21:36:56.415Z,23.02
2019-04-04T21:39:24.650Z,21.30
2019-04-04T21:41:52.922Z,20.92
2019-04-04T21:44:21.030Z,21.20
2019-04-04T21:46:49.280Z,21.77
2019-04-04T21:49:17.025Z,20.33
2019-04-04T21:51:45.199Z,21.45
2019-04-04T21:54:13.294Z,19.60
2019-04-04T21:56:41.344Z,21.48
2019-04-04T21:59:09.526Z,20.58
2019-04-04T22:01:37.470Z,21.45
2019-04-04T22:04:06.693Z,18.87
2019-04-04T22:06:34.220Z,18.27
2019-04-04T22:09:02.445Z,18.12
2019-04-04T22:11:30.661Z,18.98
2019-04-04T22:13:58.602Z,16.92
2019-04-04T22:16:26.841Z,17.62
2019-04-04T22:18:55.115Z,18.40
2019-04-04T22:21:23.178Z,17.67
2019-04-04T22:23:51.396Z,16.05
2019-04-04T22:26:20.403Z,20.40
2019-04-04T22:28:48.539Z,18.65
2019-04-04T22:31:16.717Z,18.23
2019-04-04T22:33:44.900Z,16.67
2019-04-04T22:36:12.834Z,16.33
2019-04-04T22:38:41.029Z,16.73
2019-04-04T22:41:08.883Z,19.10
2019-04-04T22:43:36.763Z,17.00
2019-04-04T22:46:04.988Z,17.90
2019-04-04T22:48:33.201Z,18.00
2019-04-04T22:51:01.365Z,18.87
2019-04-04T22:53:29.501Z,18.27
2019-04-04T22:55:57.369Z,17.17
2019-04-04T22:58:28.650Z,18.05
2019-04-04T23:00:53.427Z,16.80
2019-04-04T23:03:21.566Z,14.38
2019-04-04T23:05:49.080Z,17.00
2019-04-04T23:08:17.565Z,16.67
2019-04-04T23:10:45.901Z,14.20
2019-04-04T23:13:14.020Z,13.45
2019-04-04T23:15:42.071Z,14.57
2019-04-04T23:18:09.583Z,12.70
2019-04-04T23:20:37.735Z,12.90
2019-04-04T23:23:05.945Z,13.93
2019-04-04T23:25:34.697Z,15.85
2019-04-04T23:28:02.875Z,13.00
2019-04-04T23:30:30.901Z,10.77
2019-04-04T23:32:59.210Z,11.00
2019-04-04T23:35:27.383Z,13.25
2019-04-04T23:37:56.083Z,11.30
2019-04-04T23:40:24.349Z,10.48
2019-04-04T23:42:52.621Z,11.50
2019-04-04T23:45:21.082Z,11.18
2019-04-04T23:47:49.177Z,10.25
2019-04-04T23:50:17.365Z,10.80
2019-04-04T23:52:45.647Z,10.02
2019-04-04T23:55:13.534Z,12.10
2019-04-04T23:57:41.673Z,9.57
